sensor_id;sensor_type;location;lat;lon;timestamp;pressure;altitude;pressure_sealevel;temperature;humidity
30967;BME280;17649;51.836;8.330;2023-04-19T00:00:31;102127.19;;;12.12;nan
30967;BME280;17649;51.836;8.330;2023-04-19T00:03:31;102126.88;;;12.20;nan
30967;BME280;17649;51.836;8.330;2023-04-19T00:06:32;102124.47;;;12.15;nan
30967;BME280;17649;51.836;8.330;2023-04-19T00:09:33;102126.75;;;12.01;nan
30967;BME280;17649;51.836;8.330;2023-04-19T00:12:33;102121.56;;;12.01;nan
30967;BME280;17649;51.836;8.330;2023-04-19T00:15:34;102130.03;;;12.06;nan
30967;BME280;17649;51.836;8.330;2023-04-19T00:18:34;102130.94;;;12.05;nan
30967;BME280;17649;51.836;8.330;2023-04-19T00:21:35;102120.50;;;12.07;nan
30967;BME280;17649;51.836;8.330;2023-04-19T00:24:35;102117.44;;;11.96;nan
30967;BME280;17649;51.836;8.330;2023-04-19T00:27:36;102119.75;;;12.03;nan
30967;BME280;17649;51.836;8.330;2023-04-19T00:30:36;102127.59;;;12.02;nan
30967;BME280;17649;51.836;8.330;2023-04-19T00:33:36;102114.13;;;11.92;nan
30967;BME280;17649;51.836;8.330;2023-04-19T00:36:37;102109.47;;;12.00;nan
30967;BME280;17649;51.836;8.330;2023-04-19T00:39:37;102117.50;;;11.94;nan
30967;BME280;17649;51.836;8.330;2023-04-19T00:42:37;102105.31;;;11.96;nan
30967;BME280;17649;51.836;8.330;2023-04-19T00:45:38;102114.28;;;11.87;nan
30967;BME280;17649;51.836;8.330;2023-04-19T00:48:38;102104.09;;;11.83;nan
30967;BME280;17649;51.836;8.330;2023-04-19T00:51:38;102105.97;;;11.78;nan
30967;BME280;17649;51.836;8.330;2023-04-19T00:54:41;102107.72;;;11.77;nan
30967;BME280;17649;51.836;8.330;2023-04-19T00:57:42;102107.28;;;11.41;nan
30967;BME280;17649;51.836;8.330;2023-04-19T01:00:43;102109.78;;;11.68;nan
30967;BME280;17649;51.836;8.330;2023-04-19T01:03:45;102108.47;;;11.56;nan
30967;BME280;17649;51.836;8.330;2023-04-19T01:06:45;102103.22;;;11.57;nan
30967;BME280;17649;51.836;8.330;2023-04-19T01:09:45;102106.72;;;11.56;nan
30967;BME280;17649;51.836;8.330;2023-04-19T01:12:46;102099.66;;;11.37;nan
30967;BME280;17649;51.836;8.330;2023-04-19T01:15:46;102109.31;;;11.56;nan
30967;BME280;17649;51.836;8.330;2023-04-19T01:18:47;102099.25;;;11.49;nan
30967;BME280;17649;51.836;8.330;2023-04-19T01:21:47;102102.09;;;11.41;nan
30967;BME280;17649;51.836;8.330;2023-04-19T01:24:48;102092.44;;;11.45;nan
30967;BME280;17649;51.836;8.330;2023-04-19T01:27:48;102094.44;;;11.38;nan
30967;BME280;17649;51.836;8.330;2023-04-19T01:30:48;102101.91;;;11.47;nan
30967;BME280;17649;51.836;8.330;2023-04-19T01:33:50;102099.91;;;11.29;nan
30967;BME280;17649;51.836;8.330;2023-04-19T01:36:50;102106.09;;;11.25;nan
30967;BME280;17649;51.836;8.330;2023-04-19T01:39:50;102098.16;;;11.31;nan
30967;BME280;17649;51.836;8.330;2023-04-19T01:42:51;102093.38;;;11.19;nan
30967;BME280;17649;51.836;8.330;2023-04-19T01:45:52;102090.56;;;11.25;nan
30967;BME280;17649;51.836;8.330;2023-04-19T01:48:52;102083.91;;;11.18;nan
30967;BME280;17649;51.836;8.330;2023-04-19T01:51:52;102082.47;;;11.09;nan
30967;BME280;17649;51.836;8.330;2023-04-19T01:54:53;102088.72;;;11.03;nan
30967;BME280;17649;51.836;8.330;2023-04-19T01:57:53;102101.16;;;10.92;nan
30967;BME280;17649;51.836;8.330;2023-04-19T02:00:53;102097.69;;;10.93;nan
30967;BME280;17649;51.836;8.330;2023-04-19T02:03:54;102098.69;;;10.89;nan
30967;BME280;17649;51.836;8.330;2023-04-19T02:06:54;102101.13;;;10.94;nan
30967;BME280;17649;51.836;8.330;2023-04-19T02:09:54;102095.94;;;10.67;nan
30967;BME280;17649;51.836;8.330;2023-04-19T02:12:55;102096.72;;;10.69;nan
30967;BME280;17649;51.836;8.330;2023-04-19T02:15:55;102096.88;;;10.65;nan
30967;BME280;17649;51.836;8.330;2023-04-19T02:18:55;102096.66;;;10.72;nan
30967;BME280;17649;51.836;8.330;2023-04-19T02:21:56;102099.25;;;10.72;nan
30967;BME280;17649;51.836;8.330;2023-04-19T02:24:57;102097.69;;;10.67;nan
30967;BME280;17649;51.836;8.330;2023-04-19T02:27:58;102090.84;;;10.64;nan
30967;BME280;17649;51.836;8.330;2023-04-19T02:31:03;102094.41;;;10.62;nan
30967;BME280;17649;51.836;8.330;2023-04-19T02:34:04;102088.38;;;10.61;nan
30967;BME280;17649;51.836;8.330;2023-04-19T02:37:04;102091.97;;;10.57;nan
30967;BME280;17649;51.836;8.330;2023-04-19T02:40:06;102093.59;;;10.60;nan
30967;BME280;17649;51.836;8.330;2023-04-19T02:43:06;102096.66;;;10.71;nan
30967;BME280;17649;51.836;8.330;2023-04-19T02:46:07;102084.84;;;10.64;nan
30967;BME280;17649;51.836;8.330;2023-04-19T02:49:07;102095.06;;;10.40;nan
30967;BME280;17649;51.836;8.330;2023-04-19T02:52:08;102101.22;;;10.36;nan
30967;BME280;17649;51.836;8.330;2023-04-19T02:55:08;102102.03;;;10.38;nan
30967;BME280;17649;51.836;8.330;2023-04-19T02:58:09;102094.56;;;10.29;nan
30967;BME280;17649;51.836;8.330;2023-04-19T03:01:10;102102.81;;;10.40;nan
30967;BME280;17649;51.836;8.330;2023-04-19T03:04:10;102094.34;;;10.35;nan
30967;BME280;17649;51.836;8.330;2023-04-19T03:07:11;102100.22;;;10.11;nan
30967;BME280;17649;51.836;8.330;2023-04-19T03:10:12;102101.81;;;10.16;nan
30967;BME280;17649;51.836;8.330;2023-04-19T03:13:12;102091.81;;;10.04;nan
30967;BME280;17649;51.836;8.330;2023-04-19T03:16:12;102099.66;;;10.01;nan
30967;BME280;17649;51.836;8.330;2023-04-19T03:19:13;102088.44;;;10.02;nan
30967;BME280;17649;51.836;8.330;2023-04-19T03:22:13;102090.22;;;10.00;nan
30967;BME280;17649;51.836;8.330;2023-04-19T03:25:13;102090.63;;;9.86;nan
30967;BME280;17649;51.836;8.330;2023-04-19T03:28:14;102087.88;;;9.91;nan
30967;BME280;17649;51.836;8.330;2023-04-19T03:31:14;102090.38;;;9.94;nan
30967;BME280;17649;51.836;8.330;2023-04-19T03:34:15;102083.47;;;9.95;nan
30967;BME280;17649;51.836;8.330;2023-04-19T03:37:15;102086.94;;;9.94;nan
30967;BME280;17649;51.836;8.330;2023-04-19T03:40:15;102084.81;;;9.78;nan
30967;BME280;17649;51.836;8.330;2023-04-19T03:43:16;102086.69;;;9.73;nan
30967;BME280;17649;51.836;8.330;2023-04-19T03:46:16;102086.00;;;9.98;nan
30967;BME280;17649;51.836;8.330;2023-04-19T03:49:17;102091.28;;;10.23;nan
30967;BME280;17649;51.836;8.330;2023-04-19T03:52:17;102087.75;;;10.25;nan
30967;BME280;17649;51.836;8.330;2023-04-19T03:55:18;102094.78;;;10.20;nan
30967;BME280;17649;51.836;8.330;2023-04-19T03:58:18;102097.03;;;10.03;nan
30967;BME280;17649;51.836;8.330;2023-04-19T04:01:19;102095.44;;;9.99;nan
30967;BME280;17649;51.836;8.330;2023-04-19T04:04:20;102088.69;;;9.93;nan
30967;BME280;17649;51.836;8.330;2023-04-19T04:07:20;102082.22;;;9.78;nan
30967;BME280;17649;51.836;8.330;2023-04-19T04:10:22;102091.72;;;9.47;nan
30967;BME280;17649;51.836;8.330;2023-04-19T04:13:22;102095.28;;;9.43;nan
30967;BME280;17649;51.836;8.330;2023-04-19T04:16:22;102088.16;;;9.18;nan
30967;BME280;17649;51.836;8.330;2023-04-19T04:19:23;102092.84;;;9.04;nan
30967;BME280;17649;51.836;8.330;2023-04-19T04:22:23;102097.44;;;8.91;nan
30967;BME280;17649;51.836;8.330;2023-04-19T04:25:24;102098.59;;;8.81;nan
30967;BME280;17649;51.836;8.330;2023-04-19T04:28:28;102095.91;;;8.84;nan
30967;BME280;17649;51.836;8.330;2023-04-19T04:31:28;102101.25;;;8.77;nan
30967;BME280;17649;51.836;8.330;2023-04-19T04:34:28;102090.13;;;8.75;nan
30967;BME280;17649;51.836;8.330;2023-04-19T04:37:31;102108.91;;;8.81;nan
30967;BME280;17649;51.836;8.330;2023-04-19T04:40:33;102111.50;;;8.81;nan
30967;BME280;17649;51.836;8.330;2023-04-19T04:43:33;102116.22;;;8.62;nan
30967;BME280;17649;51.836;8.330;2023-04-19T04:46:34;102121.00;;;8.78;nan
30967;BME280;17649;51.836;8.330;2023-04-19T04:49:35;102122.38;;;8.57;nan
30967;BME280;17649;51.836;8.330;2023-04-19T04:52:35;102126.34;;;8.72;nan
30967;BME280;17649;51.836;8.330;2023-04-19T04:55:35;102124.03;;;8.59;nan
30967;BME280;17649;51.836;8.330;2023-04-19T04:58:36;102132.81;;;8.52;nan
30967;BME280;17649;51.836;8.330;2023-04-19T05:01:36;102134.53;;;8.52;nan
30967;BME280;17649;51.836;8.330;2023-04-19T05:04:36;102142.50;;;8.41;nan
30967;BME280;17649;51.836;8.330;2023-04-19T05:07:37;102137.75;;;8.21;nan
30967;BME280;17649;51.836;8.330;2023-04-19T05:10:37;102143.69;;;8.25;nan
30967;BME280;17649;51.836;8.330;2023-04-19T05:13:37;102144.47;;;8.28;nan
30967;BME280;17649;51.836;8.330;2023-04-19T05:16:38;102149.66;;;8.27;nan
30967;BME280;17649;51.836;8.330;2023-04-19T05:19:38;102152.41;;;8.19;nan
30967;BME280;17649;51.836;8.330;2023-04-19T05:22:39;102144.69;;;8.18;nan
30967;BME280;17649;51.836;8.330;2023-04-19T05:25:39;102146.41;;;8.17;nan
30967;BME280;17649;51.836;8.330;2023-04-19T05:28:41;102142.59;;;7.95;nan
30967;BME280;17649;51.836;8.330;2023-04-19T05:31:41;102140.97;;;7.91;nan
30967;BME280;17649;51.836;8.330;2023-04-19T05:34:41;102139.31;;;7.87;nan
30967;BME280;17649;51.836;8.330;2023-04-19T05:37:42;102149.41;;;7.97;nan
30967;BME280;17649;51.836;8.330;2023-04-19T05:40:42;102138.19;;;8.00;nan
30967;BME280;17649;51.836;8.330;2023-04-19T05:43:42;102149.06;;;8.14;nan
30967;BME280;17649;51.836;8.330;2023-04-19T05:46:43;102145.41;;;8.24;nan
30967;BME280;17649;51.836;8.330;2023-04-19T05:49:43;102152.13;;;8.31;nan
30967;BME280;17649;51.836;8.330;2023-04-19T05:52:43;102137.66;;;8.26;nan
30967;BME280;17649;51.836;8.330;2023-04-19T05:55:44;102144.59;;;8.22;nan
30967;BME280;17649;51.836;8.330;2023-04-19T05:58:44;102135.72;;;8.37;nan
30967;BME280;17649;51.836;8.330;2023-04-19T06:01:45;102146.81;;;8.41;nan
30967;BME280;17649;51.836;8.330;2023-04-19T06:04:45;102155.50;;;8.36;nan
30967;BME280;17649;51.836;8.330;2023-04-19T06:07:45;102150.13;;;8.46;nan
30967;BME280;17649;51.836;8.330;2023-04-19T06:10:46;102154.34;;;8.51;nan
30967;BME280;17649;51.836;8.330;2023-04-19T06:13:48;102153.78;;;8.37;nan
30967;BME280;17649;51.836;8.330;2023-04-19T06:16:50;102162.16;;;8.47;nan
30967;BME280;17649;51.836;8.330;2023-04-19T06:19:51;102155.03;;;8.58;nan
30967;BME280;17649;51.836;8.330;2023-04-19T06:22:52;102148.13;;;8.58;nan
30967;BME280;17649;51.836;8.330;2023-04-19T06:25:52;102152.63;;;8.50;nan
30967;BME280;17649;51.836;8.330;2023-04-19T06:28:52;102147.00;;;8.70;nan
30967;BME280;17649;51.836;8.330;2023-04-19T06:31:53;102134.63;;;8.84;nan
30967;BME280;17649;51.836;8.330;2023-04-19T06:34:53;102144.22;;;8.79;nan
30967;BME280;17649;51.836;8.330;2023-04-19T06:37:53;102147.06;;;9.04;nan
30967;BME280;17649;51.836;8.330;2023-04-19T06:40:54;102150.09;;;9.20;nan
30967;BME280;17649;51.836;8.330;2023-04-19T06:43:57;102138.38;;;9.07;nan
30967;BME280;17649;51.836;8.330;2023-04-19T06:46:57;102145.66;;;9.26;nan
30967;BME280;17649;51.836;8.330;2023-04-19T06:49:58;102147.56;;;9.18;nan
30967;BME280;17649;51.836;8.330;2023-04-19T06:52:58;102154.28;;;9.25;nan
30967;BME280;17649;51.836;8.330;2023-04-19T06:56:00;102158.78;;;9.17;nan
30967;BME280;17649;51.836;8.330;2023-04-19T06:59:00;102155.47;;;9.12;nan
30967;BME280;17649;51.836;8.330;2023-04-19T07:02:01;102148.78;;;9.04;nan
30967;BME280;17649;51.836;8.330;2023-04-19T07:05:01;102153.44;;;9.25;nan
30967;BME280;17649;51.836;8.330;2023-04-19T07:08:02;102154.66;;;9.10;nan
30967;BME280;17649;51.836;8.330;2023-04-19T07:11:04;102150.75;;;9.30;nan
30967;BME280;17649;51.836;8.330;2023-04-19T07:14:04;102142.00;;;9.34;nan
30967;BME280;17649;51.836;8.330;2023-04-19T07:17:05;102143.25;;;9.53;nan
30967;BME280;17649;51.836;8.330;2023-04-19T07:20:06;102138.03;;;9.54;nan
30967;BME280;17649;51.836;8.330;2023-04-19T07:23:07;102136.00;;;9.66;nan
30967;BME280;17649;51.836;8.330;2023-04-19T07:26:09;102136.78;;;9.69;nan
30967;BME280;17649;51.836;8.330;2023-04-19T07:29:09;102140.88;;;9.76;nan
30967;BME280;17649;51.836;8.330;2023-04-19T07:32:10;102135.09;;;9.68;nan
30967;BME280;17649;51.836;8.330;2023-04-19T07:35:10;102124.00;;;9.63;nan
30967;BME280;17649;51.836;8.330;2023-04-19T07:38:11;102127.56;;;9.59;nan
30967;BME280;17649;51.836;8.330;2023-04-19T07:41:11;102136.50;;;9.47;nan
30967;BME280;17649;51.836;8.330;2023-04-19T07:44:12;102127.81;;;9.82;nan
30967;BME280;17649;51.836;8.330;2023-04-19T07:47:13;102118.53;;;10.05;nan
30967;BME280;17649;51.836;8.330;2023-04-19T07:50:13;102122.38;;;10.21;nan
30967;BME280;17649;51.836;8.330;2023-04-19T07:53:14;102134.16;;;10.31;nan
30967;BME280;17649;51.836;8.330;2023-04-19T07:56:15;102123.03;;;10.56;nan
30967;BME280;17649;51.836;8.330;2023-04-19T07:59:15;102118.22;;;10.73;nan
30967;BME280;17649;51.836;8.330;2023-04-19T08:02:16;102111.63;;;10.89;nan
30967;BME280;17649;51.836;8.330;2023-04-19T08:05:18;102123.91;;;11.09;nan
30967;BME280;17649;51.836;8.330;2023-04-19T08:08:19;102124.25;;;10.98;nan
30967;BME280;17649;51.836;8.330;2023-04-19T08:11:19;102127.97;;;11.18;nan
30967;BME280;17649;51.836;8.330;2023-04-19T08:14:20;102133.13;;;11.18;nan
30967;BME280;17649;51.836;8.330;2023-04-19T08:17:20;102116.97;;;11.36;nan
30967;BME280;17649;51.836;8.330;2023-04-19T08:20:23;102125.66;;;11.58;nan
30967;BME280;17649;51.836;8.330;2023-04-19T08:23:23;102113.84;;;11.51;nan
30967;BME280;17649;51.836;8.330;2023-04-19T08:26:24;102109.75;;;11.44;nan
30967;BME280;17649;51.836;8.330;2023-04-19T08:29:24;102114.94;;;11.44;nan
30967;BME280;17649;51.836;8.330;2023-04-19T08:32:24;102114.41;;;11.84;nan
30967;BME280;17649;51.836;8.330;2023-04-19T08:35:25;102104.41;;;12.20;nan
30967;BME280;17649;51.836;8.330;2023-04-19T08:38:25;102101.69;;;11.77;nan
30967;BME280;17649;51.836;8.330;2023-04-19T08:41:27;102104.22;;;12.02;nan
30967;BME280;17649;51.836;8.330;2023-04-19T08:44:30;102104.59;;;12.38;nan
30967;BME280;17649;51.836;8.330;2023-04-19T08:47:32;102105.69;;;12.54;nan
30967;BME280;17649;51.836;8.330;2023-04-19T08:50:33;102100.09;;;12.85;nan
30967;BME280;17649;51.836;8.330;2023-04-19T08:53:34;102090.06;;;12.76;nan
30967;BME280;17649;51.836;8.330;2023-04-19T08:56:35;102096.72;;;13.25;nan
30967;BME280;17649;51.836;8.330;2023-04-19T08:59:35;102072.97;;;13.33;nan
30967;BME280;17649;51.836;8.330;2023-04-19T09:02:50;102083.16;;;13.37;nan
30967;BME280;17649;51.836;8.330;2023-04-19T09:05:50;102077.09;;;13.17;nan
30967;BME280;17649;51.836;8.330;2023-04-19T09:08:51;102079.97;;;13.10;nan
30967;BME280;17649;51.836;8.330;2023-04-19T09:11:57;102072.47;;;13.64;nan
30967;BME280;17649;51.836;8.330;2023-04-19T09:14:58;102066.78;;;13.93;nan
30967;BME280;17649;51.836;8.330;2023-04-19T09:18:06;102055.94;;;13.65;nan
30967;BME280;17649;51.836;8.330;2023-04-19T09:21:07;102054.91;;;13.69;nan
30967;BME280;17649;51.836;8.330;2023-04-19T09:24:08;102051.31;;;13.71;nan
30967;BME280;17649;51.836;8.330;2023-04-19T09:27:08;102060.31;;;13.25;nan
30967;BME280;17649;51.836;8.330;2023-04-19T09:30:11;102053.47;;;13.43;nan
30967;BME280;17649;51.836;8.330;2023-04-19T09:33:11;102047.06;;;13.50;nan
30967;BME280;17649;51.836;8.330;2023-04-19T09:36:25;102038.78;;;13.61;nan
30967;BME280;17649;51.836;8.330;2023-04-19T09:39:29;102042.47;;;13.36;nan
30967;BME280;17649;51.836;8.330;2023-04-19T09:42:46;102044.28;;;13.55;nan
30967;BME280;17649;51.836;8.330;2023-04-19T09:45:46;102031.31;;;13.34;nan
30967;BME280;17649;51.836;8.330;2023-04-19T09:48:46;102034.41;;;13.42;nan
30967;BME280;17649;51.836;8.330;2023-04-19T09:51:49;102026.88;;;13.36;nan
30967;BME280;17649;51.836;8.330;2023-04-19T09:54:49;102024.09;;;13.21;nan
30967;BME280;17649;51.836;8.330;2023-04-19T09:57:52;102020.34;;;13.28;nan
30967;BME280;17649;51.836;8.330;2023-04-19T10:00:54;102024.22;;;13.18;nan
30967;BME280;17649;51.836;8.330;2023-04-19T10:03:55;102014.31;;;13.27;nan
30967;BME280;17649;51.836;8.330;2023-04-19T10:06:56;102003.25;;;13.02;nan
30967;BME280;17649;51.836;8.330;2023-04-19T10:09:58;102010.19;;;13.22;nan
30967;BME280;17649;51.836;8.330;2023-04-19T10:13:02;102001.66;;;13.38;nan
30967;BME280;17649;51.836;8.330;2023-04-19T10:16:02;101990.50;;;13.16;nan
30967;BME280;17649;51.836;8.330;2023-04-19T10:19:14;102003.38;;;13.19;nan
30967;BME280;17649;51.836;8.330;2023-04-19T10:22:14;101996.09;;;13.07;nan
30967;BME280;17649;51.836;8.330;2023-04-19T10:25:15;101999.56;;;13.28;nan
30967;BME280;17649;51.836;8.330;2023-04-19T10:28:16;101995.13;;;13.30;nan
30967;BME280;17649;51.836;8.330;2023-04-19T10:31:19;101983.41;;;13.59;nan
30967;BME280;17649;51.836;8.330;2023-04-19T10:34:41;101978.97;;;13.61;nan
30967;BME280;17649;51.836;8.330;2023-04-19T10:38:01;101976.38;;;13.61;nan
30967;BME280;17649;51.836;8.330;2023-04-19T10:41:02;101963.56;;;13.75;nan
30967;BME280;17649;51.836;8.330;2023-04-19T10:44:11;101973.66;;;14.00;nan
30967;BME280;17649;51.836;8.330;2023-04-19T10:47:11;101961.78;;;14.12;nan
30967;BME280;17649;51.836;8.330;2023-04-19T10:50:15;101963.50;;;13.77;nan
30967;BME280;17649;51.836;8.330;2023-04-19T10:53:45;101970.00;;;14.21;nan
30967;BME280;17649;51.836;8.330;2023-04-19T10:56:59;101955.97;;;13.89;nan
30967;BME280;17649;51.836;8.330;2023-04-19T11:00:20;101954.47;;;14.02;nan
30967;BME280;17649;51.836;8.330;2023-04-19T11:03:59;101940.63;;;14.71;nan
30967;BME280;17649;51.836;8.330;2023-04-19T11:07:02;101944.31;;;15.00;nan
30967;BME280;17649;51.836;8.330;2023-04-19T11:10:03;101937.78;;;15.09;nan
30967;BME280;17649;51.836;8.330;2023-04-19T11:13:04;101922.91;;;15.58;nan
30967;BME280;17649;51.836;8.330;2023-04-19T11:16:08;101920.50;;;15.71;nan
30967;BME280;17649;51.836;8.330;2023-04-19T11:19:09;101922.75;;;15.93;nan
30967;BME280;17649;51.836;8.330;2023-04-19T11:22:09;101909.84;;;16.64;nan
30967;BME280;17649;51.836;8.330;2023-04-19T11:25:14;101906.78;;;18.09;nan
30967;BME280;17649;51.836;8.330;2023-04-19T11:28:16;101895.88;;;20.02;nan
30967;BME280;17649;51.836;8.330;2023-04-19T11:31:17;101880.59;;;20.53;nan
30967;BME280;17649;51.836;8.330;2023-04-19T11:34:21;101882.41;;;21.52;nan
30967;BME280;17649;51.836;8.330;2023-04-19T11:37:22;101865.72;;;22.67;nan
30967;BME280;17649;51.836;8.330;2023-04-19T11:40:24;101864.47;;;22.10;nan
30967;BME280;17649;51.836;8.330;2023-04-19T11:43:31;101863.50;;;22.93;nan
30967;BME280;17649;51.836;8.330;2023-04-19T11:46:31;101856.75;;;22.79;nan
30967;BME280;17649;51.836;8.330;2023-04-19T11:49:33;101860.44;;;22.67;nan
30967;BME280;17649;51.836;8.330;2023-04-19T11:52:34;101854.66;;;23.32;nan
30967;BME280;17649;51.836;8.330;2023-04-19T11:55:34;101851.72;;;23.06;nan
30967;BME280;17649;51.836;8.330;2023-04-19T11:58:45;101829.78;;;23.44;nan
30967;BME280;17649;51.836;8.330;2023-04-19T12:01:48;101833.25;;;22.76;nan
30967;BME280;17649;51.836;8.330;2023-04-19T12:04:50;101842.31;;;23.23;nan
30967;BME280;17649;51.836;8.330;2023-04-19T12:08:04;101827.16;;;22.45;nan
30967;BME280;17649;51.836;8.330;2023-04-19T12:11:07;101832.56;;;23.24;nan
30967;BME280;17649;51.836;8.330;2023-04-19T12:14:11;101834.22;;;22.75;nan
30967;BME280;17649;51.836;8.330;2023-04-19T12:17:12;101832.38;;;23.06;nan
30967;BME280;17649;51.836;8.330;2023-04-19T12:20:33;101813.19;;;24.57;nan
30967;BME280;17649;51.836;8.330;2023-04-19T12:23:34;101813.69;;;25.51;nan
30967;BME280;17649;51.836;8.330;2023-04-19T12:26:35;101809.47;;;25.22;nan
30967;BME280;17649;51.836;8.330;2023-04-19T12:29:36;101795.72;;;25.80;nan
30967;BME280;17649;51.836;8.330;2023-04-19T12:32:36;101807.50;;;22.18;nan
30967;BME280;17649;51.836;8.330;2023-04-19T12:35:37;101813.66;;;23.96;nan
30967;BME280;17649;51.836;8.330;2023-04-19T12:38:38;101799.50;;;23.10;nan
30967;BME280;17649;51.836;8.330;2023-04-19T12:41:39;101790.31;;;24.28;nan
30967;BME280;17649;51.836;8.330;2023-04-19T12:44:39;101779.06;;;24.26;nan
30967;BME280;17649;51.836;8.330;2023-04-19T12:47:40;101796.88;;;23.39;nan
30967;BME280;17649;51.836;8.330;2023-04-19T12:50:41;101794.06;;;23.79;nan
30967;BME280;17649;51.836;8.330;2023-04-19T12:53:46;101775.38;;;26.15;nan
30967;BME280;17649;51.836;8.330;2023-04-19T12:56:47;101776.91;;;26.52;nan
30967;BME280;17649;51.836;8.330;2023-04-19T12:59:47;101767.28;;;26.59;nan
30967;BME280;17649;51.836;8.330;2023-04-19T13:02:47;101750.38;;;25.66;nan
30967;BME280;17649;51.836;8.330;2023-04-19T13:05:48;101753.19;;;26.50;nan
30967;BME280;17649;51.836;8.330;2023-04-19T13:08:48;101750.03;;;26.55;nan
30967;BME280;17649;51.836;8.330;2023-04-19T13:11:49;101744.53;;;28.89;nan
30967;BME280;17649;51.836;8.330;2023-04-19T13:14:49;101742.09;;;28.71;nan
30967;BME280;17649;51.836;8.330;2023-04-19T13:17:51;101735.16;;;27.84;nan
30967;BME280;17649;51.836;8.330;2023-04-19T13:20:51;101728.00;;;28.94;nan
30967;BME280;17649;51.836;8.330;2023-04-19T13:23:53;101716.50;;;28.00;nan
30967;BME280;17649;51.836;8.330;2023-04-19T13:26:53;101713.91;;;27.84;nan
30967;BME280;17649;51.836;8.330;2023-04-19T13:29:54;101708.75;;;28.30;nan
30967;BME280;17649;51.836;8.330;2023-04-19T13:32:55;101694.19;;;29.17;nan
30967;BME280;17649;51.836;8.330;2023-04-19T13:35:55;101692.03;;;27.17;nan
30967;BME280;17649;51.836;8.330;2023-04-19T13:38:56;101689.53;;;25.82;nan
30967;BME280;17649;51.836;8.330;2023-04-19T13:41:56;101683.56;;;23.92;nan
30967;BME280;17649;51.836;8.330;2023-04-19T13:44:56;101675.13;;;25.84;nan
30967;BME280;17649;51.836;8.330;2023-04-19T13:47:56;101681.22;;;26.78;nan
30967;BME280;17649;51.836;8.330;2023-04-19T13:50:58;101665.34;;;24.72;nan
30967;BME280;17649;51.836;8.330;2023-04-19T13:53:58;101672.44;;;26.85;nan
30967;BME280;17649;51.836;8.330;2023-04-19T13:56:59;101662.56;;;28.68;nan
30967;BME280;17649;51.836;8.330;2023-04-19T13:59:59;101662.38;;;30.19;nan
30967;BME280;17649;51.836;8.330;2023-04-19T14:03:00;101658.03;;;29.52;nan
30967;BME280;17649;51.836;8.330;2023-04-19T14:06:00;101665.28;;;27.34;nan
30967;BME280;17649;51.836;8.330;2023-04-19T14:09:03;101652.81;;;25.43;nan
30967;BME280;17649;51.836;8.330;2023-04-19T14:12:03;101642.22;;;26.62;nan
30967;BME280;17649;51.836;8.330;2023-04-19T14:15:04;101650.38;;;27.81;nan
30967;BME280;17649;51.836;8.330;2023-04-19T14:18:05;101656.59;;;25.93;nan
30967;BME280;17649;51.836;8.330;2023-04-19T14:21:05;101648.59;;;25.58;nan
30967;BME280;17649;51.836;8.330;2023-04-19T14:24:05;101643.25;;;25.16;nan
30967;BME280;17649;51.836;8.330;2023-04-19T14:27:06;101651.38;;;23.03;nan
30967;BME280;17649;51.836;8.330;2023-04-19T14:30:07;101641.78;;;23.12;nan
30967;BME280;17649;51.836;8.330;2023-04-19T14:33:09;101639.00;;;25.83;nan
30967;BME280;17649;51.836;8.330;2023-04-19T14:36:09;101633.28;;;27.12;nan
30967;BME280;17649;51.836;8.330;2023-04-19T14:39:09;101640.56;;;24.00;nan
30967;BME280;17649;51.836;8.330;2023-04-19T14:42:10;101641.44;;;20.63;nan
30967;BME280;17649;51.836;8.330;2023-04-19T14:45:11;101643.97;;;19.41;nan
30967;BME280;17649;51.836;8.330;2023-04-19T14:48:11;101629.41;;;22.45;nan
30967;BME280;17649;51.836;8.330;2023-04-19T14:51:11;101639.69;;;22.67;nan
30967;BME280;17649;51.836;8.330;2023-04-19T14:54:12;101637.50;;;22.03;nan
30967;BME280;17649;51.836;8.330;2023-04-19T14:57:12;101629.56;;;22.63;nan
30967;BME280;17649;51.836;8.330;2023-04-19T15:00:13;101627.81;;;20.69;nan
30967;BME280;17649;51.836;8.330;2023-04-19T15:03:14;101632.63;;;19.29;nan
30967;BME280;17649;51.836;8.330;2023-04-19T15:06:15;101619.63;;;21.76;nan
30967;BME280;17649;51.836;8.330;2023-04-19T15:09:15;101613.97;;;25.52;nan
30967;BME280;17649;51.836;8.330;2023-04-19T15:12:15;101618.66;;;23.43;nan
30967;BME280;17649;51.836;8.330;2023-04-19T15:15:16;101606.81;;;22.90;nan
30967;BME280;17649;51.836;8.330;2023-04-19T15:18:16;101613.16;;;22.40;nan
30967;BME280;17649;51.836;8.330;2023-04-19T15:21:21;101636.03;;;19.76;nan
30967;BME280;17649;51.836;8.330;2023-04-19T15:24:21;101636.69;;;18.63;nan
30967;BME280;17649;51.836;8.330;2023-04-19T15:27:22;101637.59;;;17.89;nan
30967;BME280;17649;51.836;8.330;2023-04-19T15:30:22;101630.00;;;17.08;nan
30967;BME280;17649;51.836;8.330;2023-04-19T15:33:22;101637.13;;;18.81;nan
30967;BME280;17649;51.836;8.330;2023-04-19T15:36:22;101630.88;;;20.19;nan
30967;BME280;17649;51.836;8.330;2023-04-19T15:39:23;101625.69;;;23.99;nan
30967;BME280;17649;51.836;8.330;2023-04-19T15:42:24;101628.72;;;22.72;nan
30967;BME280;17649;51.836;8.330;2023-04-19T15:45:24;101643.78;;;19.78;nan
30967;BME280;17649;51.836;8.330;2023-04-19T15:48:25;101638.00;;;18.93;nan
30967;BME280;17649;51.836;8.330;2023-04-19T15:51:25;101626.59;;;17.84;nan
30967;BME280;17649;51.836;8.330;2023-04-19T15:54:26;101643.66;;;17.26;nan
30967;BME280;17649;51.836;8.330;2023-04-19T15:57:27;101633.38;;;16.56;nan
30967;BME280;17649;51.836;8.330;2023-04-19T16:00:28;101645.03;;;16.24;nan
30967;BME280;17649;51.836;8.330;2023-04-19T16:03:28;101639.84;;;16.36;nan
30967;BME280;17649;51.836;8.330;2023-04-19T16:06:29;101647.66;;;16.09;nan
30967;BME280;17649;51.836;8.330;2023-04-19T16:09:29;101651.84;;;15.84;nan
30967;BME280;17649;51.836;8.330;2023-04-19T16:12:30;101653.81;;;15.94;nan
30967;BME280;17649;51.836;8.330;2023-04-19T16:15:31;101653.97;;;16.05;nan
30967;BME280;17649;51.836;8.330;2023-04-19T16:18:31;101652.63;;;15.41;nan